sensor_id;sensor_type;location;lat;lon;timestamp;P1;durP1;ratioP1;P2;durP2;ratioP2
41532;SDS011;27262;-35.248;149.138;2023-12-20T00:02:21;3.38;;;0.32;;
41532;SDS011;27262;-35.248;149.138;2023-12-20T00:04:51;2.40;;;0.68;;
41532;SDS011;27262;-35.248;149.138;2023-12-20T00:07:22;3.65;;;0.43;;
41532;SDS011;27262;-35.248;149.138;2023-12-20T00:09:52;1.95;;;0.38;;
41532;SDS011;27262;-35.248;149.138;2023-12-20T00:12:23;5.30;;;0.60;;
41532;SDS011;27262;-35.248;149.138;2023-12-20T00:14:53;3.42;;;0.52;;
41532;SDS011;27262;-35.248;149.138;2023-12-20T00:17:24;3.90;;;0.68;;
41532;SDS011;27262;-35.248;149.138;2023-12-20T00:19:54;1.58;;;0.43;;
41532;SDS011;27262;-35.248;149.138;2023-12-20T00:22:24;1.33;;;0.40;;
41532;SDS011;27262;-35.248;149.138;2023-12-20T00:24:54;2.70;;;0.30;;
41532;SDS011;27262;-35.248;149.138;2023-12-20T00:27:25;1.15;;;0.28;;
41532;SDS011;27262;-35.248;149.138;2023-12-20T00:29:55;0.75;;;0.30;;
41532;SDS011;27262;-35.248;149.138;2023-12-20T00:32:26;2.95;;;0.43;;
41532;SDS011;27262;-35.248;149.138;2023-12-20T00:34:56;1.13;;;0.30;;
41532;SDS011;27262;-35.248;149.138;2023-12-20T00:37:26;4.85;;;0.65;;
41532;SDS011;27262;-35.248;149.138;2023-12-20T00:39:57;3.83;;;0.50;;
41532;SDS011;27262;-35.248;149.138;2023-12-20T00:42:47;2.75;;;0.95;;
41532;SDS011;27262;-35.248;149.138;2023-12-20T00:45:18;4.35;;;0.63;;
41532;SDS011;27262;-35.248;149.138;2023-12-20T00:47:49;1.52;;;0.40;;
41532;SDS011;27262;-35.248;149.138;2023-12-20T00:50:19;3.25;;;0.50;;
41532;SDS011;27262;-35.248;149.138;2023-12-20T00:52:53;2.28;;;0.45;;
41532;SDS011;27262;-35.248;149.138;2023-12-20T00:55:24;2.65;;;0.20;;
41532;SDS011;27262;-35.248;149.138;2023-12-20T00:57:55;1.27;;;0.50;;
41532;SDS011;27262;-35.248;149.138;2023-12-20T01:00:27;2.10;;;0.35;;
41532;SDS011;27262;-35.248;149.138;2023-12-20T01:02:58;3.33;;;0.40;;
41532;SDS011;27262;-35.248;149.138;2023-12-20T01:05:28;7.18;;;0.70;;
41532;SDS011;27262;-35.248;149.138;2023-12-20T01:07:58;4.95;;;1.20;;
41532;SDS011;27262;-35.248;149.138;2023-12-20T01:10:31;5.40;;;1.10;;
41532;SDS011;27262;-35.248;149.138;2023-12-20T01:13:02;2.35;;;0.80;;
41532;SDS011;27262;-35.248;149.138;2023-12-20T01:15:35;4.38;;;0.85;;
41532;SDS011;27262;-35.248;149.138;2023-12-20T01:18:05;3.10;;;0.98;;
41532;SDS011;27262;-35.248;149.138;2023-12-20T01:20:36;3.47;;;1.10;;
41532;SDS011;27262;-35.248;149.138;2023-12-20T01:23:06;7.18;;;1.08;;
41532;SDS011;27262;-35.248;149.138;2023-12-20T01:25:36;7.05;;;1.15;;
41532;SDS011;27262;-35.248;149.138;2023-12-20T01:28:07;2.63;;;1.00;;
41532;SDS011;27262;-35.248;149.138;2023-12-20T01:30:37;2.58;;;1.30;;
41532;SDS011;27262;-35.248;149.138;2023-12-20T01:33:08;1.75;;;0.88;;
41532;SDS011;27262;-35.248;149.138;2023-12-20T01:35:38;2.13;;;1.10;;
41532;SDS011;27262;-35.248;149.138;2023-12-20T01:38:08;2.90;;;0.90;;
41532;SDS011;27262;-35.248;149.138;2023-12-20T01:40:39;1.88;;;0.68;;
41532;SDS011;27262;-35.248;149.138;2023-12-20T01:43:09;2.30;;;0.70;;
41532;SDS011;27262;-35.248;149.138;2023-12-20T01:45:43;3.38;;;0.90;;
41532;SDS011;27262;-35.248;149.138;2023-12-20T01:48:14;1.45;;;0.70;;
41532;SDS011;27262;-35.248;149.138;2023-12-20T01:50:45;2.90;;;1.10;;
41532;SDS011;27262;-35.248;149.138;2023-12-20T01:53:16;1.63;;;0.77;;
41532;SDS011;27262;-35.248;149.138;2023-12-20T01:55:50;1.00;;;0.68;;
41532;SDS011;27262;-35.248;149.138;2023-12-20T01:58:23;0.80;;;0.50;;
41532;SDS011;27262;-35.248;149.138;2023-12-20T02:00:55;3.00;;;0.70;;
41532;SDS011;27262;-35.248;149.138;2023-12-20T02:03:27;3.70;;;0.60;;
41532;SDS011;27262;-35.248;149.138;2023-12-20T02:05:57;0.98;;;0.52;;
41532;SDS011;27262;-35.248;149.138;2023-12-20T02:08:27;2.38;;;0.60;;
41532;SDS011;27262;-35.248;149.138;2023-12-20T02:10:58;3.40;;;0.93;;
41532;SDS011;27262;-35.248;149.138;2023-12-20T02:13:30;2.40;;;0.60;;
41532;SDS011;27262;-35.248;149.138;2023-12-20T02:16:00;5.45;;;0.60;;
41532;SDS011;27262;-35.248;149.138;2023-12-20T02:18:31;0.77;;;0.50;;
41532;SDS011;27262;-35.248;149.138;2023-12-20T02:21:03;1.70;;;0.52;;
41532;SDS011;27262;-35.248;149.138;2023-12-20T02:23:34;1.15;;;0.45;;
41532;SDS011;27262;-35.248;149.138;2023-12-20T02:26:05;2.22;;;0.60;;
41532;SDS011;27262;-35.248;149.138;2023-12-20T02:28:35;1.83;;;0.57;;
41532;SDS011;27262;-35.248;149.138;2023-12-20T02:31:06;1.42;;;0.30;;
41532;SDS011;27262;-35.248;149.138;2023-12-20T02:33:36;1.73;;;0.50;;
41532;SDS011;27262;-35.248;149.138;2023-12-20T02:36:08;1.15;;;0.30;;
41532;SDS011;27262;-35.248;149.138;2023-12-20T02:38:38;1.55;;;0.57;;
41532;SDS011;27262;-35.248;149.138;2023-12-20T02:41:29;0.68;;;0.40;;
41532;SDS011;27262;-35.248;149.138;2023-12-20T02:44:01;1.73;;;0.40;;
41532;SDS011;27262;-35.248;149.138;2023-12-20T02:46:32;2.00;;;0.35;;
41532;SDS011;27262;-35.248;149.138;2023-12-20T02:49:03;0.88;;;0.30;;
41532;SDS011;27262;-35.248;149.138;2023-12-20T02:51:33;0.85;;;0.50;;
41532;SDS011;27262;-35.248;149.138;2023-12-20T02:54:07;1.23;;;0.40;;
41532;SDS011;27262;-35.248;149.138;2023-12-20T02:56:37;5.65;;;0.55;;
41532;SDS011;27262;-35.248;149.138;2023-12-20T02:59:07;2.72;;;0.50;;
41532;SDS011;27262;-35.248;149.138;2023-12-20T03:01:44;1.63;;;0.47;;
41532;SDS011;27262;-35.248;149.138;2023-12-20T03:04:15;3.47;;;0.40;;
41532;SDS011;27262;-35.248;149.138;2023-12-20T03:06:46;1.15;;;0.50;;
41532;SDS011;27262;-35.248;149.138;2023-12-20T03:09:16;4.35;;;0.60;;
41532;SDS011;27262;-35.248;149.138;2023-12-20T03:11:47;0.47;;;0.30;;
41532;SDS011;27262;-35.248;149.138;2023-12-20T03:14:17;2.65;;;0.50;;
41532;SDS011;27262;-35.248;149.138;2023-12-20T03:16:51;5.32;;;0.70;;
41532;SDS011;27262;-35.248;149.138;2023-12-20T03:19:22;0.73;;;0.30;;
41532;SDS011;27262;-35.248;149.138;2023-12-20T03:21:52;3.40;;;0.57;;
41532;SDS011;27262;-35.248;149.138;2023-12-20T03:24:23;2.08;;;0.55;;
41532;SDS011;27262;-35.248;149.138;2023-12-20T03:26:53;1.00;;;0.60;;
41532;SDS011;27262;-35.248;149.138;2023-12-20T03:29:23;0.73;;;0.25;;
41532;SDS011;27262;-35.248;149.138;2023-12-20T03:32:14;0.70;;;0.50;;
41532;SDS011;27262;-35.248;149.138;2023-12-20T03:34:44;4.43;;;0.50;;
41532;SDS011;27262;-35.248;149.138;2023-12-20T03:37:15;3.13;;;0.40;;
41532;SDS011;27262;-35.248;149.138;2023-12-20T03:39:45;1.85;;;0.52;;
41532;SDS011;27262;-35.248;149.138;2023-12-20T03:42:36;3.63;;;0.30;;
41532;SDS011;27262;-35.248;149.138;2023-12-20T03:45:09;3.72;;;0.50;;
41532;SDS011;27262;-35.248;149.138;2023-12-20T03:47:39;1.67;;;0.50;;
41532;SDS011;27262;-35.248;149.138;2023-12-20T03:50:10;2.13;;;0.40;;
41532;SDS011;27262;-35.248;149.138;2023-12-20T03:52:41;0.68;;;0.40;;
41532;SDS011;27262;-35.248;149.138;2023-12-20T03:55:11;1.30;;;0.40;;
41532;SDS011;27262;-35.248;149.138;2023-12-20T03:57:41;1.38;;;0.30;;
41532;SDS011;27262;-35.248;149.138;2023-12-20T04:00:12;0.45;;;0.35;;
41532;SDS011;27262;-35.248;149.138;2023-12-20T04:02:43;2.10;;;0.30;;
41532;SDS011;27262;-35.248;149.138;2023-12-20T04:05:13;0.55;;;0.25;;
41532;SDS011;27262;-35.248;149.138;2023-12-20T04:07:44;0.57;;;0.30;;
41532;SDS011;27262;-35.248;149.138;2023-12-20T04:10:14;1.67;;;0.20;;
41532;SDS011;27262;-35.248;149.138;2023-12-20T04:12:45;0.65;;;0.22;;
41532;SDS011;27262;-35.248;149.138;2023-12-20T04:15:15;0.40;;;0.20;;
41532;SDS011;27262;-35.248;149.138;2023-12-20T04:17:45;2.17;;;0.50;;
41532;SDS011;27262;-35.248;149.138;2023-12-20T04:20:16;1.95;;;0.38;;
41532;SDS011;27262;-35.248;149.138;2023-12-20T04:22:47;0.95;;;0.28;;
41532;SDS011;27262;-35.248;149.138;2023-12-20T04:25:20;2.28;;;0.20;;
41532;SDS011;27262;-35.248;149.138;2023-12-20T04:27:50;1.75;;;0.43;;
41532;SDS011;27262;-35.248;149.138;2023-12-20T04:30:21;0.80;;;0.38;;
41532;SDS011;27262;-35.248;149.138;2023-12-20T04:32:52;0.85;;;0.20;;
41532;SDS011;27262;-35.248;149.138;2023-12-20T04:35:22;0.95;;;0.30;;
41532;SDS011;27262;-35.248;149.138;2023-12-20T04:37:53;6.65;;;0.40;;
41532;SDS011;27262;-35.248;149.138;2023-12-20T04:40:24;5.50;;;0.45;;
41532;SDS011;27262;-35.248;149.138;2023-12-20T04:42:54;0.57;;;0.30;;
41532;SDS011;27262;-35.248;149.138;2023-12-20T04:45:26;2.00;;;0.32;;
41532;SDS011;27262;-35.248;149.138;2023-12-20T04:48:17;1.38;;;0.32;;
41532;SDS011;27262;-35.248;149.138;2023-12-20T04:50:47;0.68;;;0.32;;
41532;SDS011;27262;-35.248;149.138;2023-12-20T04:53:18;2.53;;;0.40;;
41532;SDS011;27262;-35.248;149.138;2023-12-20T04:55:48;1.30;;;0.40;;
41532;SDS011;27262;-35.248;149.138;2023-12-20T04:58:18;1.60;;;0.47;;
41532;SDS011;27262;-35.248;149.138;2023-12-20T05:00:49;4.18;;;0.40;;
41532;SDS011;27262;-35.248;149.138;2023-12-20T05:03:19;4.30;;;0.60;;
41532;SDS011;27262;-35.248;149.138;2023-12-20T05:05:49;3.58;;;0.52;;
41532;SDS011;27262;-35.248;149.138;2023-12-20T05:08:23;2.80;;;0.40;;
41532;SDS011;27262;-35.248;149.138;2023-12-20T05:10:53;1.23;;;0.20;;
41532;SDS011;27262;-35.248;149.138;2023-12-20T05:13:24;3.65;;;0.38;;
41532;SDS011;27262;-35.248;149.138;2023-12-20T05:16:08;0.93;;;0.40;;
41532;SDS011;27262;-35.248;149.138;2023-12-20T05:18:38;1.00;;;0.25;;
41532;SDS011;27262;-35.248;149.138;2023-12-20T05:21:08;2.40;;;0.40;;
41532;SDS011;27262;-35.248;149.138;2023-12-20T05:23:39;2.28;;;0.40;;
41532;SDS011;27262;-35.248;149.138;2023-12-20T05:26:09;2.92;;;0.20;;
41532;SDS011;27262;-35.248;149.138;2023-12-20T05:28:39;0.68;;;0.30;;
41532;SDS011;27262;-35.248;149.138;2023-12-20T05:31:10;0.30;;;0.30;;
41532;SDS011;27262;-35.248;149.138;2023-12-20T05:33:40;0.95;;;0.20;;
41532;SDS011;27262;-35.248;149.138;2023-12-20T05:36:11;1.85;;;0.40;;
41532;SDS011;27262;-35.248;149.138;2023-12-20T05:38:43;0.98;;;0.25;;
41532;SDS011;27262;-35.248;149.138;2023-12-20T05:41:13;0.63;;;0.40;;
41532;SDS011;27262;-35.248;149.138;2023-12-20T05:43:44;1.17;;;0.45;;
41532;SDS011;27262;-35.248;149.138;2023-12-20T05:46:14;2.63;;;0.40;;
41532;SDS011;27262;-35.248;149.138;2023-12-20T05:48:45;3.45;;;0.40;;
41532;SDS011;27262;-35.248;149.138;2023-12-20T05:51:15;1.23;;;0.30;;
41532;SDS011;27262;-35.248;149.138;2023-12-20T05:54:07;1.20;;;0.40;;
41532;SDS011;27262;-35.248;149.138;2023-12-20T05:56:38;1.33;;;0.30;;
41532;SDS011;27262;-35.248;149.138;2023-12-20T05:59:09;1.70;;;0.40;;
41532;SDS011;27262;-35.248;149.138;2023-12-20T06:01:39;2.50;;;0.55;;
41532;SDS011;27262;-35.248;149.138;2023-12-20T06:04:10;1.65;;;0.30;;
41532;SDS011;27262;-35.248;149.138;2023-12-20T06:06:41;2.72;;;0.40;;
41532;SDS011;27262;-35.248;149.138;2023-12-20T06:09:12;1.83;;;0.40;;
41532;SDS011;27262;-35.248;149.138;2023-12-20T06:11:43;1.20;;;0.40;;
41532;SDS011;27262;-35.248;149.138;2023-12-20T06:14:14;1.08;;;0.43;;
41532;SDS011;27262;-35.248;149.138;2023-12-20T06:16:45;0.98;;;0.40;;
41532;SDS011;27262;-35.248;149.138;2023-12-20T06:19:15;1.63;;;0.47;;
41532;SDS011;27262;-35.248;149.138;2023-12-20T06:21:46;0.98;;;0.20;;
41532;SDS011;27262;-35.248;149.138;2023-12-20T06:24:16;0.40;;;0.30;;
41532;SDS011;27262;-35.248;149.138;2023-12-20T06:26:46;1.45;;;0.20;;
41532;SDS011;27262;-35.248;149.138;2023-12-20T06:29:17;2.40;;;0.30;;
41532;SDS011;27262;-35.248;149.138;2023-12-20T06:31:47;1.52;;;0.43;;
41532;SDS011;27262;-35.248;149.138;2023-12-20T06:34:17;1.17;;;0.40;;
41532;SDS011;27262;-35.248;149.138;2023-12-20T06:36:48;0.40;;;0.20;;
41532;SDS011;27262;-35.248;149.138;2023-12-20T06:39:18;1.02;;;0.40;;
41532;SDS011;27262;-35.248;149.138;2023-12-20T06:41:59;4.13;;;0.40;;
41532;SDS011;27262;-35.248;149.138;2023-12-20T06:44:29;3.53;;;0.40;;
41532;SDS011;27262;-35.248;149.138;2023-12-20T06:47:01;1.27;;;0.52;;
41532;SDS011;27262;-35.248;149.138;2023-12-20T06:49:31;1.02;;;0.32;;
41532;SDS011;27262;-35.248;149.138;2023-12-20T06:52:02;2.75;;;0.30;;
41532;SDS011;27262;-35.248;149.138;2023-12-20T06:54:32;0.98;;;0.30;;
41532;SDS011;27262;-35.248;149.138;2023-12-20T06:57:05;3.03;;;0.60;;
41532;SDS011;27262;-35.248;149.138;2023-12-20T06:59:41;1.80;;;0.57;;
41532;SDS011;27262;-35.248;149.138;2023-12-20T07:02:13;0.40;;;0.30;;
41532;SDS011;27262;-35.248;149.138;2023-12-20T07:04:43;3.33;;;0.60;;
41532;SDS011;27262;-35.248;149.138;2023-12-20T07:07:13;1.98;;;0.30;;
41532;SDS011;27262;-35.248;149.138;2023-12-20T07:09:44;0.70;;;0.45;;
41532;SDS011;27262;-35.248;149.138;2023-12-20T07:12:14;0.40;;;0.30;;
41532;SDS011;27262;-35.248;149.138;2023-12-20T07:14:45;2.80;;;0.40;;
41532;SDS011;27262;-35.248;149.138;2023-12-20T07:17:15;0.77;;;0.40;;
41532;SDS011;27262;-35.248;149.138;2023-12-20T07:19:45;1.48;;;0.50;;
41532;SDS011;27262;-35.248;149.138;2023-12-20T07:22:16;2.55;;;0.50;;
41532;SDS011;27262;-35.248;149.138;2023-12-20T07:24:46;0.28;;;0.28;;
41532;SDS011;27262;-35.248;149.138;2023-12-20T07:27:18;0.85;;;0.35;;
41532;SDS011;27262;-35.248;149.138;2023-12-20T07:29:48;3.50;;;0.40;;
41532;SDS011;27262;-35.248;149.138;2023-12-20T07:32:19;1.65;;;0.40;;
41532;SDS011;27262;-35.248;149.138;2023-12-20T07:34:49;1.20;;;0.38;;
41532;SDS011;27262;-35.248;149.138;2023-12-20T07:37:19;1.00;;;0.32;;
41532;SDS011;27262;-35.248;149.138;2023-12-20T07:39:50;0.75;;;0.30;;
41532;SDS011;27262;-35.248;149.138;2023-12-20T07:42:20;2.53;;;0.50;;
41532;SDS011;27262;-35.248;149.138;2023-12-20T07:44:51;2.78;;;0.50;;
41532;SDS011;27262;-35.248;149.138;2023-12-20T07:47:21;7.15;;;0.77;;
41532;SDS011;27262;-35.248;149.138;2023-12-20T07:49:53;0.40;;;0.30;;
41532;SDS011;27262;-35.248;149.138;2023-12-20T07:52:24;1.30;;;0.45;;
41532;SDS011;27262;-35.248;149.138;2023-12-20T07:54:55;2.70;;;0.55;;
41532;SDS011;27262;-35.248;149.138;2023-12-20T07:57:28;2.50;;;0.45;;
41532;SDS011;27262;-35.248;149.138;2023-12-20T07:59:59;0.90;;;0.40;;
41532;SDS011;27262;-35.248;149.138;2023-12-20T08:02:29;0.75;;;0.40;;
41532;SDS011;27262;-35.248;149.138;2023-12-20T08:05:00;2.47;;;0.40;;
41532;SDS011;27262;-35.248;149.138;2023-12-20T08:07:30;3.35;;;0.60;;
41532;SDS011;27262;-35.248;149.138;2023-12-20T08:10:01;1.00;;;0.50;;
41532;SDS011;27262;-35.248;149.138;2023-12-20T08:12:32;1.42;;;0.30;;
41532;SDS011;27262;-35.248;149.138;2023-12-20T08:15:02;1.67;;;0.45;;
41532;SDS011;27262;-35.248;149.138;2023-12-20T08:17:33;0.77;;;0.43;;
41532;SDS011;27262;-35.248;149.138;2023-12-20T08:20:03;1.83;;;0.38;;
41532;SDS011;27262;-35.248;149.138;2023-12-20T08:22:34;1.30;;;0.47;;
41532;SDS011;27262;-35.248;149.138;2023-12-20T08:25:05;3.83;;;0.43;;
41532;SDS011;27262;-35.248;149.138;2023-12-20T08:27:41;1.35;;;0.50;;
41532;SDS011;27262;-35.248;149.138;2023-12-20T08:30:12;1.10;;;0.40;;
41532;SDS011;27262;-35.248;149.138;2023-12-20T08:32:43;0.50;;;0.30;;
41532;SDS011;27262;-35.248;149.138;2023-12-20T08:35:13;0.80;;;0.40;;
41532;SDS011;27262;-35.248;149.138;2023-12-20T08:37:43;1.08;;;0.40;;
41532;SDS011;27262;-35.248;149.138;2023-12-20T08:40:13;1.85;;;0.35;;
41532;SDS011;27262;-35.248;149.138;2023-12-20T08:42:44;0.73;;;0.30;;
41532;SDS011;27262;-35.248;149.138;2023-12-20T08:45:14;0.95;;;0.38;;
41532;SDS011;27262;-35.248;149.138;2023-12-20T08:47:44;3.35;;;0.40;;
41532;SDS011;27262;-35.248;149.138;2023-12-20T08:50:16;0.82;;;0.60;;
41532;SDS011;27262;-35.248;149.138;2023-12-20T08:52:46;0.85;;;0.35;;
41532;SDS011;27262;-35.248;149.138;2023-12-20T08:55:17;0.30;;;0.20;;
41532;SDS011;27262;-35.248;149.138;2023-12-20T08:57:48;0.80;;;0.50;;
41532;SDS011;27262;-35.248;149.138;2023-12-20T09:00:19;5.55;;;0.40;;
41532;SDS011;27262;-35.248;149.138;2023-12-20T09:02:53;0.70;;;0.30;;
41532;SDS011;27262;-35.248;149.138;2023-12-20T09:05:24;0.88;;;0.32;;
41532;SDS011;27262;-35.248;149.138;2023-12-20T09:07:54;1.08;;;0.50;;
41532;SDS011;27262;-35.248;149.138;2023-12-20T09:10:25;0.77;;;0.30;;
41532;SDS011;27262;-35.248;149.138;2023-12-20T09:12:55;0.20;;;0.20;;
41532;SDS011;27262;-35.248;149.138;2023-12-20T09:15:26;0.60;;;0.40;;
41532;SDS011;27262;-35.248;149.138;2023-12-20T09:18:02;0.95;;;0.40;;
41532;SDS011;27262;-35.248;149.138;2023-12-20T09:20:33;1.10;;;0.40;;
41532;SDS011;27262;-35.248;149.138;2023-12-20T09:23:07;1.27;;;0.40;;
41532;SDS011;27262;-35.248;149.138;2023-12-20T09:25:37;5.15;;;0.40;;
41532;SDS011;27262;-35.248;149.138;2023-12-20T09:28:07;1.45;;;0.40;;
41532;SDS011;27262;-35.248;149.138;2023-12-20T09:30:38;1.38;;;0.52;;
41532;SDS011;27262;-35.248;149.138;2023-12-20T09:33:08;0.68;;;0.40;;
41532;SDS011;27262;-35.248;149.138;2023-12-20T09:35:39;0.45;;;0.30;;
41532;SDS011;27262;-35.248;149.138;2023-12-20T09:38:09;0.45;;;0.30;;
41532;SDS011;27262;-35.248;149.138;2023-12-20T09:40:41;2.25;;;0.30;;
41532;SDS011;27262;-35.248;149.138;2023-12-20T09:43:16;2.58;;;0.50;;
41532;SDS011;27262;-35.248;149.138;2023-12-20T09:45:49;1.95;;;0.30;;
41532;SDS011;27262;-35.248;149.138;2023-12-20T09:48:23;0.52;;;0.30;;
41532;SDS011;27262;-35.248;149.138;2023-12-20T09:50:55;0.55;;;0.28;;
41532;SDS011;27262;-35.248;149.138;2023-12-20T09:53:26;1.15;;;0.30;;
41532;SDS011;27262;-35.248;149.138;2023-12-20T09:55:58;1.23;;;0.47;;
41532;SDS011;27262;-35.248;149.138;2023-12-20T09:58:31;1.38;;;0.68;;
41532;SDS011;27262;-35.248;149.138;2023-12-20T10:01:02;3.65;;;0.88;;
41532;SDS011;27262;-35.248;149.138;2023-12-20T10:03:32;1.13;;;0.63;;
41532;SDS011;27262;-35.248;149.138;2023-12-20T10:06:04;3.10;;;1.27;;
41532;SDS011;27262;-35.248;149.138;2023-12-20T10:08:35;6.35;;;1.90;;
41532;SDS011;27262;-35.248;149.138;2023-12-20T10:11:06;4.93;;;2.47;;
41532;SDS011;27262;-35.248;149.138;2023-12-20T10:13:40;5.38;;;2.30;;
41532;SDS011;27262;-35.248;149.138;2023-12-20T10:16:12;4.80;;;1.85;;
41532;SDS011;27262;-35.248;149.138;2023-12-20T10:18:43;6.35;;;2.10;;
41532;SDS011;27262;-35.248;149.138;2023-12-20T10:21:15;3.58;;;1.95;;
41532;SDS011;27262;-35.248;149.138;2023-12-20T10:23:46;3.50;;;2.10;;
41532;SDS011;27262;-35.248;149.138;2023-12-20T10:26:23;4.75;;;1.58;;
41532;SDS011;27262;-35.248;149.138;2023-12-20T10:28:56;5.15;;;2.03;;
41532;SDS011;27262;-35.248;149.138;2023-12-20T10:31:32;5.75;;;2.10;;
41532;SDS011;27262;-35.248;149.138;2023-12-20T10:34:04;2.53;;;1.60;;
41532;SDS011;27262;-35.248;149.138;2023-12-20T10:36:35;2.83;;;1.55;;
41532;SDS011;27262;-35.248;149.138;2023-12-20T10:39:05;5.70;;;2.15;;
41532;SDS011;27262;-35.248;149.138;2023-12-20T10:41:42;6.70;;;2.00;;
41532;SDS011;27262;-35.248;149.138;2023-12-20T10:44:14;5.10;;;1.73;;
41532;SDS011;27262;-35.248;149.138;2023-12-20T10:46:46;4.18;;;1.95;;
41532;SDS011;27262;-35.248;149.138;2023-12-20T10:49:19;3.88;;;1.88;;
41532;SDS011;27262;-35.248;149.138;2023-12-20T10:51:50;5.35;;;1.88;;
41532;SDS011;27262;-35.248;149.138;2023-12-20T10:54:24;4.78;;;1.48;;
41532;SDS011;27262;-35.248;149.138;2023-12-20T10:56:55;5.32;;;1.75;;
41532;SDS011;27262;-35.248;149.138;2023-12-20T10:59:27;2.97;;;1.80;;
41532;SDS011;27262;-35.248;149.138;2023-12-20T11:01:58;5.43;;;2.05;;
41532;SDS011;27262;-35.248;149.138;2023-12-20T11:05:18;4.43;;;1.92;;
41532;SDS011;27262;-35.248;149.138;2023-12-20T11:07:58;5.03;;;1.67;;
41532;SDS011;27262;-35.248;149.138;2023-12-20T11:11:12;4.97;;;1.92;;
41532;SDS011;27262;-35.248;149.138;2023-12-20T11:14:02;4.40;;;1.85;;
41532;SDS011;27262;-35.248;149.138;2023-12-20T11:16:38;5.45;;;1.67;;
41532;SDS011;27262;-35.248;149.138;2023-12-20T11:19:20;5.43;;;1.60;;
41532;SDS011;27262;-35.248;149.138;2023-12-20T11:21:51;3.80;;;1.77;;
41532;SDS011;27262;-35.248;149.138;2023-12-20T11:24:24;3.40;;;1.88;;
41532;SDS011;27262;-35.248;149.138;2023-12-20T11:26:56;7.45;;;2.60;;
41532;SDS011;27262;-35.248;149.138;2023-12-20T11:29:30;3.28;;;1.60;;
41532;SDS011;27262;-35.248;149.138;2023-12-20T11:34:55;4.95;;;1.90;;
41532;SDS011;27262;-35.248;149.138;2023-12-20T11:37:30;4.10;;;1.75;;
41532;SDS011;27262;-35.248;149.138;2023-12-20T11:40:05;4.18;;;1.92;;
41532;SDS011;27262;-35.248;149.138;2023-12-20T11:42:41;6.85;;;2.30;;
41532;SDS011;27262;-35.248;149.138;2023-12-20T11:45:14;4.85;;;2.28;;
41532;SDS011;27262;-35.248;149.138;2023-12-20T11:47:52;4.05;;;1.83;;
41532;SDS011;27262;-35.248;149.138;2023-12-20T11:50:23;4.45;;;1.80;;
41532;SDS011;27262;-35.248;149.138;2023-12-20T11:52:54;3.15;;;1.65;;
41532;SDS011;27262;-35.248;149.138;2023-12-20T11:55:25;6.05;;;1.83;;
41532;SDS011;27262;-35.248;149.138;2023-12-20T11:57:56;5.45;;;1.90;;
41532;SDS011;27262;-35.248;149.138;2023-12-20T12:00:26;3.70;;;1.90;;
41532;SDS011;27262;-35.248;149.138;2023-12-20T12:03:00;3.95;;;1.88;;
41532;SDS011;27262;-35.248;149.138;2023-12-20T12:05:32;3.72;;;1.60;;
41532;SDS011;27262;-35.248;149.138;2023-12-20T12:08:03;8.80;;;2.10;;
41532;SDS011;27262;-35.248;149.138;2023-12-20T12:10:35;4.85;;;1.88;;
41532;SDS011;27262;-35.248;149.138;2023-12-20T12:13:05;4.25;;;1.73;;
41532;SDS011;27262;-35.248;149.138;2023-12-20T12:15:36;3.95;;;1.70;;
41532;SDS011;27262;-35.248;149.138;2023-12-20T12:18:07;3.70;;;1.50;;
41532;SDS011;27262;-35.248;149.138;2023-12-20T12:20:39;5.00;;;1.63;;
41532;SDS011;27262;-35.248;149.138;2023-12-20T12:23:10;4.60;;;1.90;;
41532;SDS011;27262;-35.248;149.138;2023-12-20T12:25:40;3.70;;;1.70;;
41532;SDS011;27262;-35.248;149.138;2023-12-20T12:28:11;5.10;;;1.65;;
41532;SDS011;27262;-35.248;149.138;2023-12-20T12:30:43;4.45;;;1.52;;
41532;SDS011;27262;-35.248;149.138;2023-12-20T12:33:27;2.95;;;1.40;;
41532;SDS011;27262;-35.248;149.138;2023-12-20T12:35:59;5.15;;;1.40;;
41532;SDS011;27262;-35.248;149.138;2023-12-20T12:38:30;3.40;;;1.67;;
41532;SDS011;27262;-35.248;149.138;2023-12-20T12:41:00;3.22;;;1.60;;
41532;SDS011;27262;-35.248;149.138;2023-12-20T12:43:31;4.43;;;1.52;;
41532;SDS011;27262;-35.248;149.138;2023-12-20T12:46:02;8.43;;;2.33;;
41532;SDS011;27262;-35.248;149.138;2023-12-20T12:48:33;2.83;;;1.42;;
41532;SDS011;27262;-35.248;149.138;2023-12-20T12:51:04;4.18;;;1.83;;
41532;SDS011;27262;-35.248;149.138;2023-12-20T12:53:35;4.47;;;1.55;;
41532;SDS011;27262;-35.248;149.138;2023-12-20T12:56:06;4.68;;;1.80;;
41532;SDS011;27262;-35.248;149.138;2023-12-20T12:58:36;3.47;;;1.58;;
41532;SDS011;27262;-35.248;149.138;2023-12-20T13:01:07;3.97;;;1.52;;
41532;SDS011;27262;-35.248;149.138;2023-12-20T13:03:37;4.90;;;1.73;;
41532;SDS011;27262;-35.248;149.138;2023-12-20T13:06:07;4.13;;;1.58;;
41532;SDS011;27262;-35.248;149.138;2023-12-20T13:08:38;4.25;;;1.90;;
41532;SDS011;27262;-35.248;149.138;2023-12-20T13:11:08;4.88;;;2.03;;
41532;SDS011;27262;-35.248;149.138;2023-12-20T13:13:38;6.43;;;2.20;;
41532;SDS011;27262;-35.248;149.138;2023-12-20T13:16:29;5.57;;;2.22;;
41532;SDS011;27262;-35.248;149.138;2023-12-20T13:18:59;3.42;;;1.65;;
41532;SDS011;27262;-35.248;149.138;2023-12-20T13:21:30;5.18;;;1.98;;
41532;SDS011;27262;-35.248;149.138;2023-12-20T13:24:00;7.22;;;1.80;;
41532;SDS011;27262;-35.248;149.138;2023-12-20T13:26:30;4.85;;;1.88;;
41532;SDS011;27262;-35.248;149.138;2023-12-20T13:29:01;6.72;;;2.40;;
41532;SDS011;27262;-35.248;149.138;2023-12-20T13:31:31;3.90;;;2.00;;
41532;SDS011;27262;-35.248;149.138;2023-12-20T13:34:02;5.20;;;2.35;;
41532;SDS011;27262;-35.248;149.138;2023-12-20T13:36:32;4.45;;;2.10;;
41532;SDS011;27262;-35.248;149.138;2023-12-20T13:39:04;3.55;;;1.75;;
41532;SDS011;27262;-35.248;149.138;2023-12-20T13:41:35;2.85;;;1.63;;
41532;SDS011;27262;-35.248;149.138;2023-12-20T13:44:05;4.45;;;1.50;;
41532;SDS011;27262;-35.248;149.138;2023-12-20T13:46:37;7.18;;;2.60;;
41532;SDS011;27262;-35.248;149.138;2023-12-20T13:49:07;5.82;;;2.00;;
41532;SDS011;27262;-35.248;149.138;2023-12-20T13:51:37;3.72;;;1.80;;
41532;SDS011;27262;-35.248;149.138;2023-12-20T13:54:08;5.57;;;2.15;;
41532;SDS011;27262;-35.248;149.138;2023-12-20T13:56:39;4.32;;;2.17;;
41532;SDS011;27262;-35.248;149.138;2023-12-20T13:59:27;4.70;;;1.80;;
41532;SDS011;27262;-35.248;149.138;2023-12-20T14:01:57;5.93;;;1.63;;
41532;SDS011;27262;-35.248;149.138;2023-12-20T14:04:31;4.18;;;2.00;;
41532;SDS011;27262;-35.248;149.138;2023-12-20T14:07:09;5.28;;;2.45;;
41532;SDS011;27262;-35.248;149.138;2023-12-20T14:09:40;5.18;;;2.40;;
41532;SDS011;27262;-35.248;149.138;2023-12-20T14:12:14;6.43;;;2.20;;
41532;SDS011;27262;-35.248;149.138;2023-12-20T14:14:44;7.13;;;2.00;;
41532;SDS011;27262;-35.248;149.138;2023-12-20T14:17:15;4.93;;;2.13;;
41532;SDS011;27262;-35.248;149.138;2023-12-20T14:19:46;3.63;;;2.22;;
41532;SDS011;27262;-35.248;149.138;2023-12-20T14:22:16;5.63;;;2.10;;
41532;SDS011;27262;-35.248;149.138;2023-12-20T14:24:47;6.65;;;2.58;;
41532;SDS011;27262;-35.248;149.138;2023-12-20T14:27:38;4.43;;;1.80;;
41532;SDS011;27262;-35.248;149.138;2023-12-20T14:30:11;3.25;;;2.00;;
41532;SDS011;27262;-35.248;149.138;2023-12-20T14:32:43;5.53;;;2.63;;
41532;SDS011;27262;-35.248;149.138;2023-12-20T14:35:13;4.90;;;2.15;;
41532;SDS011;27262;-35.248;149.138;2023-12-20T14:37:43;5.15;;;2.10;;
41532;SDS011;27262;-35.248;149.138;2023-12-20T14:40:14;4.93;;;2.10;;